Time;durP1;ratioP1;P1;durP2;ratioP2;P2;SDS_P1;SDS_P2;PMS_P1;PMS_P2;Temp;Humidity;BMP_temperature;BMP_pressure;BME280_temperature;BME280_humidity;BME280_pressure;Samples;Min_cycle;Max_cycle;Signal;HPM_P1;HPM_P2
2022/10/05 00:01:25;;;;;;;;;;;;;;;16.08;76.66;100769.28;5033023;28;899;-71
2022/10/05 00:03:51;;;;;;;;;;;;;;;16.09;76.69;100759.03;5032863;28;797;-71
2022/10/05 00:06:17;;;;;;;;;;;;;;;16.09;76.55;100759.88;5032805;28;887;-71
2022/10/05 00:08:42;;;;;;;;;;;;;;;16.08;76.59;100771.22;5031673;28;1393;-71
2022/10/05 00:11:10;;;;;;;;;;;;;;;16.08;76.77;100771.22;5033008;28;991;-71
2022/10/05 00:13:35;;;;;;;;;;;;;;;16.09;76.59;100775.63;5032967;28;1894;-71
2022/10/05 00:16:00;;;;;;;;;;;;;;;16.09;76.67;100775.63;5030918;28;829;-71
2022/10/05 00:18:25;;;;;;;;;;;;;;;16.08;76.73;100769.28;5032332;28;860;-71
2022/10/05 00:20:51;;;;;;;;;;;;;;;16.08;76.59;100763.75;5031594;28;1177;-71
2022/10/05 00:23:23;;;;;;;;;;;;;;;16.08;76.70;100766.50;5031858;28;825;-71
2022/10/05 00:25:48;;;;;;;;;;;;;;;16.08;76.76;100776.75;5032490;28;935;-71
2022/10/05 00:28:25;;;;;;;;;;;;;;;16.07;76.56;100770.44;5031906;28;967;-71
2022/10/05 00:30:53;;;;;;;;;;;;;;;16.07;76.50;100766.84;5036738;28;1215;-71
2022/10/05 00:33:18;;;;;;;;;;;;;;;16.07;76.57;100764.91;5035419;28;1894;-71
2022/10/05 00:35:44;;;;;;;;;;;;;;;16.07;76.86;100758.56;5036567;28;1011;-71
2022/10/05 00:38:09;;;;;;;;;;;;;;;16.08;76.76;100758.22;5035814;28;887;-71
2022/10/05 00:40:39;;;;;;;;;;;;;;;16.06;76.93;100752.22;5035887;28;1578;-71
2022/10/05 00:43:14;;;;;;;;;;;;;;;16.07;76.77;100753.88;5037153;28;983;-71
2022/10/05 00:45:46;;;;;;;;;;;;;;;16.06;76.58;100749.47;5036598;28;807;-71
2022/10/05 00:48:12;;;;;;;;;;;;;;;16.07;76.46;100753.03;5036545;28;832;-71
2022/10/05 00:50:56;;;;;;;;;;;;;;;16.07;76.50;100751.09;5034842;28;1208;-71
2022/10/05 00:53:21;;;;;;;;;;;;;;;16.06;76.48;100749.47;5034830;28;1898;-71
2022/10/05 00:55:49;;;;;;;;;;;;;;;16.05;76.85;100750.59;5035307;28;903;-71
2022/10/05 00:58:14;;;;;;;;;;;;;;;16.06;76.67;100754.97;5036292;28;1034;-71
2022/10/05 01:01:05;;;;;;;;;;;;;;;16.06;76.62;100754.97;5035810;28;1189;-71
2022/10/05 01:03:49;;;;;;;;;;;;;;;16.06;76.65;100743.94;5033669;28;1056;-71
2022/10/05 01:06:23;;;;;;;;;;;;;;;16.05;76.64;100731.25;5035078;28;829;-71
2022/10/05 01:09:01;;;;;;;;;;;;;;;16.06;76.49;100729.31;5035255;28;1209;-71
2022/10/05 01:11:40;;;;;;;;;;;;;;;16.06;76.98;100729.31;5033810;28;1905;-71
2022/10/05 01:14:05;;;;;;;;;;;;;;;16.04;76.40;100718.56;5035988;28;1053;-71
2022/10/05 01:16:42;;;;;;;;;;;;;;;16.05;76.46;100716.63;5035242;28;955;-71
2022/10/05 02:25:00;;;;;;;;;;;;;;;16.02;76.85;100700.69;5034766;28;748;-71
2022/10/05 02:27:30;;;;;;;;;;;;;;;16.00;77.25;100703.75;5033231;28;1562;-71
2022/10/05 02:29:58;;;;;;;;;;;;;;;16.00;77.01;100695.47;5034629;28;1219;-71
2022/10/05 02:32:27;;;;;;;;;;;;;;;16.00;76.95;100689.94;5033872;28;1981;-71
2022/10/05 02:34:57;;;;;;;;;;;;;;;16.00;76.86;100687.19;5033117;28;821;-71
2022/10/05 02:37:44;;;;;;;;;;;;;;;16.00;77.04;100689.94;5033562;28;1045;-71
2022/10/05 02:40:09;;;;;;;;;;;;;;;16.00;77.07;100692.69;5034545;28;1257;-71
2022/10/05 02:42:53;;;;;;;;;;;;;;;16.01;76.91;100694.34;5033915;28;879;-71
2022/10/05 02:45:18;;;;;;;;;;;;;;;16.00;76.78;100686.38;5034059;28;966;-71
2022/10/05 02:47:49;;;;;;;;;;;;;;;15.99;76.77;100685.53;5033701;28;1015;-71
2022/10/05 02:50:25;;;;;;;;;;;;;;;15.99;76.66;100679.22;5034002;28;1295;-71
2022/10/05 02:53:09;;;;;;;;;;;;;;;16.00;77.18;100678.91;5033213;28;1890;-71
2022/10/05 02:55:45;;;;;;;;;;;;;;;16.00;76.95;100675.31;5033279;28;983;-71
2022/10/05 02:58:13;;;;;;;;;;;;;;;15.99;76.74;100666.22;5034067;28;848;-71
2022/10/05 03:00:44;;;;;;;;;;;;;;;15.99;76.95;100663.44;5034245;28;1213;-71
2022/10/05 03:03:09;;;;;;;;;;;;;;;15.99;76.92;100668.97;5034002;28;892;-71
2022/10/05 03:05:34;;;;;;;;;;;;;;;15.98;77.08;100659.09;5033471;28;930;-71
2022/10/05 03:08:01;;;;;;;;;;;;;;;15.98;77.04;100656.31;5033411;28;1018;-71
2022/10/05 03:10:41;;;;;;;;;;;;;;;15.99;76.94;100665.44;5033182;28;1179;-71
2022/10/05 03:13:13;;;;;;;;;;;;;;;15.99;77.16;100663.44;5032776;28;2338;-71
2022/10/05 03:15:38;;;;;;;;;;;;;;;15.99;76.84;100668.19;5033696;28;1058;-71
2022/10/05 03:18:03;;;;;;;;;;;;;;;15.98;76.96;100661.03;5031646;28;935;-71
2022/10/05 03:20:51;;;;;;;;;;;;;;;15.98;76.63;100672.06;5033674;28;1178;-71
2022/10/05 03:23:22;;;;;;;;;;;;;;;15.98;76.93;100655.50;5033390;28;782;-71
2022/10/05 03:25:56;;;;;;;;;;;;;;;15.98;77.09;100647.22;5032764;28;974;-71
2022/10/05 03:28:24;;;;;;;;;;;;;;;15.98;77.04;100647.22;5032880;28;745;-71
2022/10/05 03:31:00;;;;;;;;;;;;;;;15.97;76.95;100651.94;5033613;28;1188;-71
2022/10/05 03:33:35;;;;;;;;;;;;;;;15.98;77.00;100639.75;5031679;28;1963;-71
2022/10/05 03:36:21;;;;;;;;;;;;;;;15.97;76.93;100642.84;5031951;28;798;-71
2022/10/05 03:39:01;;;;;;;;;;;;;;;15.97;76.96;100648.34;5033321;28;1263;-71
2022/10/05 03:41:29;;;;;;;;;;;;;;;15.97;77.16;100649.16;5033048;28;805;-71
2022/10/05 03:44:00;;;;;;;;;;;;;;;15.97;76.96;100649.16;5032969;28;1007;-71
2022/10/05 03:46:36;;;;;;;;;;;;;;;15.97;76.76;100645.59;5032976;28;809;-70
2022/10/05 03:49:08;;;;;;;;;;;;;;;15.96;76.68;100642.00;5033208;28;1291;-71
2022/10/05 03:51:35;;;;;;;;;;;;;;;15.97;76.95;100635.38;5033051;28;1898;-71
2022/10/05 03:54:13;;;;;;;;;;;;;;;15.97;76.78;100631.78;5032550;28;987;-71
2022/10/05 03:56:42;;;;;;;;;;;;;;;15.97;76.96;100621.56;5032948;28;801;-69
2022/10/05 03:59:28;;;;;;;;;;;;;;;15.96;77.14;100619.94;5033106;28;1320;-70
2022/10/05 04:01:55;;;;;;;;;;;;;;;15.96;76.95;100614.41;5032420;28;1361;-71
2022/10/05 04:04:41;;;;;;;;;;;;;;;15.96;76.92;100610.81;5032767;28;963;-71
2022/10/05 04:07:10;;;;;;;;;;;;;;;15.96;76.89;100608.88;5032124;28;1050;-70
2022/10/05 04:09:38;;;;;;;;;;;;;;;15.95;77.25;100606.44;5032808;28;1292;-70
2022/10/05 04:12:12;;;;;;;;;;;;;;;15.95;77.22;100615.53;5032745;28;1957;-71
2022/10/05 04:14:40;;;;;;;;;;;;;;;15.96;76.93;100603.38;5028852;28;1332;-71
2022/10/05 04:17:10;;;;;;;;;;;;;;;15.95;77.05;100601.72;5012331;28;801;-71
2022/10/05 04:19:50;;;;;;;;;;;;;;;15.96;77.05;100597.03;5011479;28;1210;-70
2022/10/05 04:22:25;;;;;;;;;;;;;;;15.96;77.21;100594.25;5027987;28;1170;-71
2022/10/05 04:25:02;;;;;;;;;;;;;;;15.95;77.05;100601.72;5013106;28;900;-71
2022/10/05 04:27:32;;;;;;;;;;;;;;;15.97;77.03;100605.00;5012191;28;1001;-71
2022/10/05 04:30:02;;;;;;;;;;;;;;;15.97;77.23;100605.00;5012530;28;1276;-71
2022/10/05 04:32:30;;;;;;;;;;;;;;;15.99;76.93;100605.47;5011817;28;1895;-71
2022/10/05 04:34:58;;;;;;;;;;;;;;;16.00;77.15;100606.28;5012960;28;830;-70
2022/10/05 04:37:26;;;;;;;;;;;;;;;15.99;76.79;100597.19;5013027;28;1019;-71
2022/10/05 04:40:02;;;;;;;;;;;;;;;16.01;77.13;100599.66;5013135;28;1286;-71
2022/10/05 04:42:32;;;;;;;;;;;;;;;16.00;76.93;100598.00;5029923;28;1505;-71
2022/10/05 04:45:18;;;;;;;;;;;;;;;16.00;76.92;100604.34;5032049;28;808;-71
2022/10/05 04:47:53;;;;;;;;;;;;;;;16.01;76.42;100599.66;5030750;28;891;-71
2022/10/05 04:50:21;;;;;;;;;;;;;;;16.02;76.93;100602.09;5032378;28;1217;-71
2022/10/05 04:52:46;;;;;;;;;;;;;;;16.03;77.31;100598.22;5031496;28;1898;-70
2022/10/05 04:55:30;;;;;;;;;;;;;;;15.89;77.39;100570.69;5031601;28;1032;-70
2022/10/05 04:58:13;;;;;;;;;;;;;;;16.08;77.18;100600.84;5032456;28;1007;-70
2022/10/05 05:00:46;;;;;;;;;;;;;;;16.09;77.44;100599.69;5032628;28;1181;-70
2022/10/05 05:03:25;;;;;;;;;;;;;;;16.11;77.16;100604.91;5032731;28;755;-71
2022/10/05 05:06:13;;;;;;;;;;;;;;;16.11;77.21;100600.22;5032465;28;872;-70
2022/10/05 05:08:57;;;;;;;;;;;;;;;16.11;77.43;100589.16;5032632;28;1149;-71
2022/10/05 05:11:27;;;;;;;;;;;;;;;16.11;77.36;100596.63;5032622;28;980;-70
2022/10/05 05:13:52;;;;;;;;;;;;;;;16.10;77.37;100590.28;5032600;28;1011;-70
2022/10/05 05:16:21;;;;;;;;;;;;;;;16.10;77.36;100597.75;5034126;28;742;-71
2022/10/05 05:19:04;;;;;;;;;;;;;;;16.09;77.33;100590.59;5036030;28;1189;-70
2022/10/05 05:21:47;;;;;;;;;;;;;;;16.09;77.41;100601.66;5036119;28;821;-70
2022/10/05 05:24:19;;;;;;;;;;;;;;;16.06;77.48;100594.84;5036138;28;1054;-70
2022/10/05 05:26:57;;;;;;;;;;;;;;;16.07;77.42;100590.94;5034483;28;1206;-70
2022/10/05 05:29:37;;;;;;;;;;;;;;;16.06;77.48;100592.06;5035838;28;1300;-70
2022/10/05 05:32:10;;;;;;;;;;;;;;;16.06;77.37;100588.50;5035844;28;1894;-70
2022/10/05 05:34:53;;;;;;;;;;;;;;;16.06;77.32;100592.06;5035890;28;956;-71
2022/10/05 05:37:33;;;;;;;;;;;;;;;16.06;77.48;100588.50;5035616;28;802;-70
2022/10/05 05:40:04;;;;;;;;;;;;;;;16.06;77.75;100600.34;5035730;28;1201;-70
2022/10/05 05:42:30;;;;;;;;;;;;;;;16.06;77.35;100586.53;5035816;28;808;-71
2022/10/05 05:44:58;;;;;;;;;;;;;;;16.07;77.53;100581.84;5035678;28;814;-70
2022/10/05 05:47:36;;;;;;;;;;;;;;;16.06;77.42;100583.78;5035324;28;1028;-70
2022/10/05 05:50:04;;;;;;;;;;;;;;;16.06;77.65;100591.25;5035619;28;1236;-70
2022/10/05 05:52:50;;;;;;;;;;;;;;;16.06;77.53;100594.00;5035476;28;1893;-70
2022/10/05 05:55:21;;;;;;;;;;;;;;;16.06;77.27;100594.84;5035334;28;966;-70
2022/10/05 05:57:57;;;;;;;;;;;;;;;16.05;77.19;100597.91;5035090;28;873;-70
2022/10/05 06:00:27;;;;;;;;;;;;;;;16.05;77.34;100604.25;5035247;28;1621;-70
2022/10/05 06:03:02;;;;;;;;;;;;;;;16.05;77.25;100603.44;5034203;28;844;-70
2022/10/05 06:05:39;;;;;;;;;;;;;;;16.06;77.25;100610.59;5035295;28;781;-71
2022/10/05 06:08:14;;;;;;;;;;;;;;;16.04;77.29;100599.84;5035082;28;889;-70
2022/10/05 06:10:42;;;;;;;;;;;;;;;16.05;77.30;100606.19;5033888;28;1321;-71
2022/10/05 06:13:16;;;;;;;;;;;;;;;16.04;77.19;100601.78;5035057;28;1874;-70
2022/10/05 06:15:46;;;;;;;;;;;;;;;16.04;77.16;100608.13;5035033;28;802;-70
2022/10/05 06:18:13;;;;;;;;;;;;;;;16.04;77.56;100604.56;5034944;28;840;-71
2022/10/05 06:20:41;;;;;;;;;;;;;;;16.04;77.34;100610.88;5034837;28;1261;-71
2022/10/05 06:23:11;;;;;;;;;;;;;;;16.03;77.50;100614.78;5034932;28;1046;-71
2022/10/05 06:25:57;;;;;;;;;;;;;;;16.05;77.13;100607.00;5034669;28;1058;-70
2022/10/05 06:28:23;;;;;;;;;;;;;;;16.04;76.99;100605.38;5034771;28;1043;-70
2022/10/05 06:31:07;;;;;;;;;;;;;;;16.05;77.36;100608.94;5034618;28;1189;-70
2022/10/05 06:33:45;;;;;;;;;;;;;;;16.04;77.47;100615.59;5034643;28;1948;-71
2022/10/05 06:36:21;;;;;;;;;;;;;;;16.04;77.18;100623.88;5033141;28;1175;-70
2022/10/05 06:39:03;;;;;;;;;;;;;;;16.05;77.21;100617.22;5033300;28;1204;-70
2022/10/05 06:41:47;;;;;;;;;;;;;;;16.04;77.09;100627.47;5034586;28;947;-70
2022/10/05 06:44:21;;;;;;;;;;;;;;;16.05;77.01;100628.28;5034602;28;809;-70
2022/10/05 06:47:01;;;;;;;;;;;;;;;16.06;77.13;100635.44;5034105;28;793;-70
2022/10/05 06:49:35;;;;;;;;;;;;;;;16.05;77.52;100628.28;5034337;28;1256;-71
2022/10/05 06:52:08;;;;;;;;;;;;;;;16.06;77.10;100635.44;5034246;28;1952;-71
2022/10/05 06:54:43;;;;;;;;;;;;;;;16.05;77.04;100622.75;5034368;28;813;-70
2022/10/05 06:57:22;;;;;;;;;;;;;;;16.06;77.44;100625.19;5033981;28;892;-70
2022/10/05 07:00:00;;;;;;;;;;;;;;;16.06;76.81;100624.38;5034071;28;1193;-69
2022/10/05 07:02:31;;;;;;;;;;;;;;;16.05;77.33;100634.63;5034082;28;789;-70
2022/10/05 07:05:15;;;;;;;;;;;;;;;16.07;77.10;100631.53;5034164;28;984;-70
2022/10/05 07:07:40;;;;;;;;;;;;;;;16.06;76.90;100627.16;5034015;28;809;-70
2022/10/05 07:10:08;;;;;;;;;;;;;;;16.07;76.95;100634.31;5033901;28;1201;-70
2022/10/05 07:12:36;;;;;;;;;;;;;;;16.08;77.15;100630.38;5033922;28;1963;-70
2022/10/05 07:15:16;;;;;;;;;;;;;;;16.08;77.15;100622.91;5033946;28;858;-70
2022/10/05 07:17:57;;;;;;;;;;;;;;;16.07;77.08;100632.38;5033817;28;976;-70
2022/10/05 07:20:27;;;;;;;;;;;;;;;16.08;77.03;100636.72;5033810;28;1284;-70
2022/10/05 07:23:13;;;;;;;;;;;;;;;16.09;77.16;100638.38;5033882;28;873;-70
2022/10/05 07:25:50;;;;;;;;;;;;;;;16.11;77.02;100641.63;5028712;28;1259;-69
2022/10/05 07:28:26;;;;;;;;;;;;;;;16.10;76.92;100637.25;5033830;28;976;-70
2022/10/05 07:31:05;;;;;;;;;;;;;;;16.11;76.98;100635.28;5033559;28;1229;-70
2022/10/05 07:33:49;;;;;;;;;;;;;;;16.12;76.76;100645.22;5033553;28;1902;-69
2022/10/05 07:39:34;;;;;;;;;;;;;;;16.13;77.08;100644.09;5032049;28;1456;-70
2022/10/05 07:42:03;;;;;;;;;;;;;;;16.12;76.95;100634.16;5033538;28;1005;-70
2022/10/05 07:44:46;;;;;;;;;;;;;;;16.12;76.84;100634.97;5033435;28;782;-70
2022/10/05 07:47:17;;;;;;;;;;;;;;;16.12;77.05;100634.97;5033371;28;817;-70
2022/10/05 07:49:56;;;;;;;;;;;;;;;16.12;76.77;100634.97;5033450;28;1577;-70
2022/10/05 07:52:27;;;;;;;;;;;;;;;16.12;77.02;100637.75;5033320;28;1955;-70
2022/10/05 07:54:52;;;;;;;;;;;;;;;16.12;76.91;100645.22;5033381;28;1003;-70
2022/10/05 07:57:25;;;;;;;;;;;;;;;16.12;77.36;100639.69;5033241;28;1024;-70
2022/10/05 07:59:56;;;;;;;;;;;;;;;16.12;76.98;100648.78;5032169;28;1448;-70
2022/10/05 08:02:46;;;;;;;;;;;;;;;16.11;76.92;100644.41;5033309;28;814;-70
2022/10/05 08:05:11;;;;;;;;;;;;;;;16.12;77.04;100642.44;5033318;28;992;-70
2022/10/05 08:07:37;;;;;;;;;;;;;;;16.12;76.81;100642.44;5032996;28;814;-70
2022/10/05 08:10:12;;;;;;;;;;;;;;;16.12;76.97;100640.50;5033207;28;1309;-70
2022/10/05 08:12:57;;;;;;;;;;;;;;;16.12;76.77;100642.44;5033148;28;1902;-70
2022/10/05 08:15:27;;;;;;;;;;;;;;;16.12;76.72;100639.69;5033076;28;816;-70
2022/10/05 08:17:52;;;;;;;;;;;;;;;16.12;76.90;100643.28;5033006;28;1046;-72
2022/10/05 08:20:26;;;;;;;;;;;;;;;16.12;76.77;100639.69;5033058;28;1189;-71
2022/10/05 08:23:10;;;;;;;;;;;;;;;16.11;76.78;100647.16;5033077;28;1176;-71
2022/10/05 08:26:01;;;;;;;;;;;;;;;16.11;76.86;100636.13;5033061;28;1062;-71
2022/10/05 08:28:35;;;;;;;;;;;;;;;16.12;76.74;100637.75;5033053;28;885;-71
2022/10/05 08:31:00;;;;;;;;;;;;;;;16.12;77.03;100639.69;5033065;28;1205;-71
2022/10/05 08:33:29;;;;;;;;;;;;;;;16.11;76.82;100636.13;5032945;28;1898;-72
2022/10/05 08:36:13;;;;;;;;;;;;;;;16.12;76.89;100634.16;5032625;28;916;-70
2022/10/05 08:38:39;;;;;;;;;;;;;;;16.11;76.66;100638.06;5031694;28;1311;-71
2022/10/05 08:41:33;;;;;;;;;;;;;;;16.11;76.66;100636.13;5033028;28;813;-71
2022/10/05 08:44:17;;;;;;;;;;;;;;;16.12;76.68;100628.66;5030766;28;1091;-71
2022/10/05 08:47:09;;;;;;;;;;;;;;;16.11;76.85;100624.25;5032607;28;992;-71
2022/10/05 08:49:43;;;;;;;;;;;;;;;16.12;76.91;100628.66;5032970;28;1296;-71
2022/10/05 08:52:38;;;;;;;;;;;;;;;16.12;76.99;100631.41;5036052;28;1951;-72
2022/10/05 08:55:06;;;;;;;;;;;;;;;16.12;76.85;100629.47;5035882;28;1278;-71
2022/10/05 08:57:48;;;;;;;;;;;;;;;16.13;76.76;100630.28;5034922;28;1123;-72
2022/10/05 09:00:20;;;;;;;;;;;;;;;16.14;76.75;100631.91;5036274;28;1251;-71
2022/10/05 09:03:01;;;;;;;;;;;;;;;16.13;76.62;100631.09;5035157;28;1247;-71
2022/10/05 09:05:33;;;;;;;;;;;;;;;16.13;76.66;100635.81;5036407;28;1067;-71
2022/10/05 09:08:13;;;;;;;;;;;;;;;16.13;76.58;100630.28;5036134;28;1003;-72
2022/10/05 09:10:55;;;;;;;;;;;;;;;16.14;76.79;100632.72;5036265;28;1182;-71
2022/10/05 09:13:32;;;;;;;;;;;;;;;16.14;77.01;100631.91;5036155;28;1958;-71
2022/10/05 09:16:03;;;;;;;;;;;;;;;16.14;76.54;100629.97;5036048;28;909;-72
2022/10/05 09:18:28;;;;;;;;;;;;;;;16.15;76.71;100633.56;5036277;28;837;-71
2022/10/05 09:21:01;;;;;;;;;;;;;;;16.14;76.37;100635.50;5036008;28;1178;-70
2022/10/05 09:23:29;;;;;;;;;;;;;;;16.15;76.49;100633.56;5036046;28;899;-72
2022/10/05 09:25:56;;;;;;;;;;;;;;;16.15;76.52;100631.59;5035408;28;901;-71
2022/10/05 09:28:24;;;;;;;;;;;;;;;16.16;76.54;100641.50;5035992;28;774;-72
2022/10/05 09:30:50;;;;;;;;;;;;;;;16.16;76.55;100641.50;5035838;28;1172;-71
2022/10/05 09:33:15;;;;;;;;;;;;;;;16.17;76.64;100645.06;5035821;28;1957;-71
2022/10/05 09:35:46;;;;;;;;;;;;;;;16.15;76.85;100639.88;5035891;28;868;-71
2022/10/05 09:38:16;;;;;;;;;;;;;;;16.16;76.76;100641.50;5035708;28;1003;-72
2022/10/05 09:41:00;;;;;;;;;;;;;;;16.16;76.80;100638.72;5035624;28;1197;-72
2022/10/05 09:43:28;;;;;;;;;;;;;;;16.16;76.84;100635.97;5034491;28;1360;-71
2022/10/05 09:45:56;;;;;;;;;;;;;;;16.16;76.84;100635.97;5035353;28;817;-71
2022/10/05 09:48:56;;;;;;;;;;;;;;;16.17;76.68;100631.25;5035598;28;818;-71
2022/10/05 09:51:22;;;;;;;;;;;;;;;16.17;76.31;100632.09;5033205;28;1175;-72
2022/10/05 09:53:55;;;;;;;;;;;;;;;16.18;76.50;100630.13;5034901;28;1952;-71
2022/10/05 09:56:44;;;;;;;;;;;;;;;16.18;76.68;100636.47;5035211;28;806;-71
2022/10/05 09:59:34;;;;;;;;;;;;;;;16.19;76.60;100631.78;5027839;28;2435;-71
2022/10/05 10:02:13;;;;;;;;;;;;;;;16.18;76.77;100625.44;5026760;28;798;-71
2022/10/05 10:05:00;;;;;;;;;;;;;;;16.20;76.87;100630.66;5019600;28;875;-71
2022/10/05 10:07:35;;;;;;;;;;;;;;;16.20;76.55;100625.94;5018802;28;865;-72
2022/10/05 10:10:03;;;;;;;;;;;;;;;16.19;76.45;100621.53;5035058;28;1220;-71
2022/10/05 10:12:28;;;;;;;;;;;;;;;16.21;76.73;100624.00;5035098;28;1899;-71
2022/10/05 10:15:22;;;;;;;;;;;;;;;16.21;76.38;100627.56;5035150;28;857;-71
2022/10/05 10:17:47;;;;;;;;;;;;;;;16.21;76.53;100622.06;5034862;28;1029;-71
2022/10/05 10:20:16;;;;;;;;;;;;;;;16.21;76.43;100622.06;5034988;28;1178;-71
2022/10/05 10:22:41;;;;;;;;;;;;;;;16.22;76.55;100626.44;5034961;28;809;-71
2022/10/05 10:25:22;;;;;;;;;;;;;;;16.22;76.70;100620.94;5034890;28;880;-71
2022/10/05 10:28:03;;;;;;;;;;;;;;;16.23;76.50;100622.56;5034678;28;887;-71
2022/10/05 10:30:40;;;;;;;;;;;;;;;16.25;76.54;100619.47;5034823;28;1220;-71
2022/10/05 10:33:14;;;;;;;;;;;;;;;16.24;76.39;100610.38;5034763;28;1960;-71
2022/10/05 10:35:47;;;;;;;;;;;;;;;16.26;76.45;100610.88;5034936;28;836;-71
2022/10/05 10:38:31;;;;;;;;;;;;;;;16.26;76.31;100616.38;5034766;28;825;-71
2022/10/05 10:41:07;;;;;;;;;;;;;;;16.28;76.54;100616.91;5033189;28;1252;-71
2022/10/05 10:43:48;;;;;;;;;;;;;;;16.27;76.52;100612.50;5034732;28;982;-71
2022/10/05 10:46:26;;;;;;;;;;;;;;;16.27;76.33;100612.50;5034306;28;1037;-71
2022/10/05 10:49:12;;;;;;;;;;;;;;;16.27;76.02;100604.22;5034427;28;1205;-71
2022/10/05 10:51:51;;;;;;;;;;;;;;;16.27;76.65;100609.72;5034479;28;817;-71
2022/10/05 10:54:40;;;;;;;;;;;;;;;16.28;76.43;100600.31;5034393;28;940;-71
2022/10/05 10:57:10;;;;;;;;;;;;;;;16.28;76.16;100605.03;5034097;28;1010;-71
2022/10/05 10:59:47;;;;;;;;;;;;;;;16.28;76.46;100605.03;5034068;28;1221;-71
2022/10/05 11:02:31;;;;;;;;;;;;;;;16.29;76.35;100606.66;5034316;28;876;-71
2022/10/05 11:05:17;;;;;;;;;;;;;;;16.30;76.51;100601.94;5034179;28;825;-71
2022/10/05 11:07:50;;;;;;;;;;;;;;;16.28;76.50;100594.78;5012713;28;1197;-71
2022/10/05 11:10:24;;;;;;;;;;;;;;;16.29;76.01;100598.38;5033941;28;1303;-71
2022/10/05 11:13:08;;;;;;;;;;;;;;;16.29;76.44;100587.31;5032267;28;1902;-71
2022/10/05 11:15:51;;;;;;;;;;;;;;;16.30;76.59;100594.50;5033912;28;1034;-71
2022/10/05 11:18:22;;;;;;;;;;;;;;;16.30;76.50;100582.63;5034029;28;805;-71
2022/10/05 11:20:47;;;;;;;;;;;;;;;16.31;76.05;100587.00;5033753;28;1276;-71
2022/10/05 11:23:31;;;;;;;;;;;;;;;16.30;76.24;100583.44;5032558;28;1220;-71
2022/10/05 11:26:03;;;;;;;;;;;;;;;16.31;76.49;100587.00;5033495;28;1046;-71
2022/10/05 11:28:46;;;;;;;;;;;;;;;16.31;75.84;100584.25;5033927;28;884;-71
2022/10/05 11:31:30;;;;;;;;;;;;;;;16.32;75.90;100583.13;5033670;28;1367;-71
2022/10/05 11:34:14;;;;;;;;;;;;;;;16.32;76.67;100578.41;5033617;28;1903;-71
2022/10/05 11:36:48;;;;;;;;;;;;;;;16.34;76.38;100572.56;5033369;28;848;-71
2022/10/05 11:39:16;;;;;;;;;;;;;;;16.35;76.27;100566.72;5033487;28;1292;-67
2022/10/05 11:41:56;;;;;;;;;;;;;;;16.35;76.18;100568.66;5033524;28;990;-67
2022/10/05 11:44:41;;;;;;;;;;;;;;;16.35;76.52;100563.13;5033570;28;975;-67
2022/10/05 11:47:25;;;;;;;;;;;;;;;16.32;76.08;100561.84;5033217;28;968;-67
2022/10/05 11:50:10;;;;;;;;;;;;;;;16.32;76.37;100547.22;5033318;28;1300;-67
2022/10/05 11:52:45;;;;;;;;;;;;;;;16.31;76.41;100543.63;5033400;28;1981;-67
2022/10/05 11:55:25;;;;;;;;;;;;;;;16.30;76.22;100542.00;5033512;28;983;-67
2022/10/05 11:58:08;;;;;;;;;;;;;;;16.30;76.24;100530.94;5033160;28;899;-67
2022/10/05 12:00:42;;;;;;;;;;;;;;;16.29;76.33;100529.31;5033316;28;1350;-67
2022/10/05 12:03:26;;;;;;;;;;;;;;;16.30;76.33;100527.38;5033421;28;967;-67
2022/10/05 12:05:51;;;;;;;;;;;;;;;16.30;76.02;100519.09;5033020;28;979;-67
2022/10/05 12:08:25;;;;;;;;;;;;;;;16.31;76.35;100512.44;5033162;28;847;-67
2022/10/05 12:10:58;;;;;;;;;;;;;;;16.28;76.40;100509.16;5033113;28;1202;-67
2022/10/05 12:13:37;;;;;;;;;;;;;;;16.29;76.54;100512.75;5033373;28;1898;-67
2022/10/05 12:16:21;;;;;;;;;;;;;;;16.29;76.44;100501.69;5032849;28;885;-67
2022/10/05 12:18:55;;;;;;;;;;;;;;;16.30;76.84;100508.84;5033143;28;1209;-67
2022/10/05 12:21:38;;;;;;;;;;;;;;;16.31;76.55;100498.63;5033102;28;812;-67
2022/10/05 12:24:08;;;;;;;;;;;;;;;16.30;76.65;100502.50;5033104;28;1001;-67
2022/10/05 12:26:39;;;;;;;;;;;;;;;16.31;76.70;100495.88;5036953;28;995;-67
2022/10/05 12:29:06;;;;;;;;;;;;;;;16.30;76.55;100495.03;5037049;28;1321;-67
2022/10/05 12:31:39;;;;;;;;;;;;;;;16.32;76.81;100489.22;5036996;28;848;-67
2022/10/05 12:34:17;;;;;;;;;;;;;;;16.34;76.70;100489.69;5036976;28;1894;-67
2022/10/05 12:36:46;;;;;;;;;;;;;;;16.34;76.72;100478.63;5036825;28;1074;-67
2022/10/05 12:39:17;;;;;;;;;;;;;;;16.34;76.76;100481.41;5036787;28;1272;-67
2022/10/05 12:41:45;;;;;;;;;;;;;;;16.34;76.13;100470.34;5036929;28;829;-67
2022/10/05 12:44:20;;;;;;;;;;;;;;;16.35;76.69;100469.22;5036780;28;892;-67
2022/10/05 12:46:57;;;;;;;;;;;;;;;16.35;76.46;100460.94;5036542;28;860;-67
2022/10/05 12:49:22;;;;;;;;;;;;;;;16.38;76.40;100465.81;5036667;28;1289;-67
2022/10/05 12:51:54;;;;;;;;;;;;;;;16.39;76.29;100465.50;5036614;28;1889;-67
2022/10/05 12:54:22;;;;;;;;;;;;;;;16.41;76.47;100465.19;5036623;28;1373;-67
2022/10/05 12:56:56;;;;;;;;;;;;;;;16.40;76.65;100447.81;5036366;28;936;-67
2022/10/05 12:59:58;;;;;;;;;;;;;;;16.40;75.96;100436.75;5036419;28;1259;-67
2022/10/05 13:02:23;;;;;;;;;;;;;;;16.41;76.17;100432.84;4994592;28;1323;-67
2022/10/05 13:05:01;;;;;;;;;;;;;;;16.43;76.32;100418.69;5027661;28;1057;-67
2022/10/05 13:07:45;;;;;;;;;;;;;;;16.43;75.96;100416.75;5036131;28;865;-67
2022/10/05 13:10:10;;;;;;;;;;;;;;;16.43;76.38;100413.16;5036233;28;1297;-67
2022/10/05 13:12:51;;;;;;;;;;;;;;;16.43;76.22;100410.41;5036238;28;1907;-67
2022/10/05 13:15:16;;;;;;;;;;;;;;;16.42;76.23;100401.31;5036346;28;793;-67
2022/10/05 13:17:48;;;;;;;;;;;;;;;16.41;76.07;100405.22;5035962;28;983;-67
2022/10/05 13:20:19;;;;;;;;;;;;;;;16.41;76.28;100394.19;5036196;28;1296;-67
2022/10/05 13:22:54;;;;;;;;;;;;;;;16.42;76.10;100400.50;5036174;28;880;-67
2022/10/05 13:25:19;;;;;;;;;;;;;;;16.42;76.50;100390.25;5034827;28;829;-67
2022/10/05 13:28:10;;;;;;;;;;;;;;;16.42;76.10;100390.25;5035762;28;860;-67
2022/10/05 13:30:38;;;;;;;;;;;;;;;16.44;75.75;100387.19;5035906;28;1252;-67
2022/10/05 13:33:16;;;;;;;;;;;;;;;16.43;76.49;100396.59;5035894;28;1959;-67
2022/10/05 13:35:42;;;;;;;;;;;;;;;16.42;76.19;100390.25;5035565;28;801;-67
2022/10/05 13:38:25;;;;;;;;;;;;;;;16.43;76.30;100396.59;5034946;28;821;-67
2022/10/05 13:41:13;;;;;;;;;;;;;;;16.43;75.93;100388.31;5035699;28;1190;-68
2022/10/05 13:44:00;;;;;;;;;;;;;;;16.44;76.27;100376.13;5035723;28;939;-67
2022/10/05 13:46:35;;;;;;;;;;;;;;;16.44;76.38;100381.66;5035434;28;999;-67
2022/10/05 13:49:13;;;;;;;;;;;;;;;16.43;76.41;100380.03;5035707;28;1192;-67
2022/10/05 13:51:43;;;;;;;;;;;;;;;16.43;76.94;100380.84;5035504;28;1200;-67
2022/10/05 13:54:21;;;;;;;;;;;;;;;16.44;76.41;100376.13;5035594;28;1956;-67
2022/10/05 13:56:53;;;;;;;;;;;;;;;16.45;76.30;100377.75;5035250;28;1015;-67
2022/10/05 13:59:52;;;;;;;;;;;;;;;16.45;76.54;100363.94;5035268;28;1261;-67
2022/10/05 14:02:38;;;;;;;;;;;;;;;16.47;76.28;100361.69;5012992;28;1531;-67
2022/10/05 14:05:21;;;;;;;;;;;;;;;16.48;76.27;100357.78;5035363;28;817;-68
2022/10/05 14:07:46;;;;;;;;;;;;;;;16.49;76.65;100362.19;5035043;28;812;-67
2022/10/05 14:10:13;;;;;;;;;;;;;;;16.49;76.00;100365.75;5033927;28;1312;-67
2022/10/05 14:12:39;;;;;;;;;;;;;;;16.52;76.05;100353.22;5035190;28;1995;-67
2022/10/05 14:15:31;;;;;;;;;;;;;;;16.68;75.83;100346.09;5035192;28;789;-67
2022/10/05 14:17:56;;;;;;;;;;;;;;;16.88;75.31;100341.88;5032706;28;1205;-67
2022/10/05 14:20:21;;;;;;;;;;;;;;;16.84;75.66;100340.94;5035124;28;1276;-67
2022/10/05 14:22:50;;;;;;;;;;;;;;;16.76;74.96;100336.22;5035002;28;789;-67
2022/10/05 14:25:16;;;;;;;;;;;;;;;16.68;74.89;100329.53;5034907;28;896;-67
2022/10/05 14:27:47;;;;;;;;;;;;;;;16.62;75.12;100323.34;5034788;28;820;-67
2022/10/05 14:30:13;;;;;;;;;;;;;;;16.57;75.60;100317.97;5034733;28;1299;-67
2022/10/05 14:32:58;;;;;;;;;;;;;;;16.56;75.65;100304.47;5033577;28;1898;-67
2022/10/05 14:35:26;;;;;;;;;;;;;;;16.56;76.08;100304.47;5033713;28;1036;-67
2022/10/05 14:37:57;;;;;;;;;;;;;;;16.55;76.25;100306.44;5033314;28;1074;-67